< < Back
Terminal Aerodrome Forecast


Current Version              Previous Versions:   1  2  3  4  5  6  7  8  9  

Terminal Aerodrome Forecast

177
FTUS42 KGSP 050859 AAA
TAFCLT
TAF AMD
KCLT 050859Z 0509/0606 02005KT P6SM VCSH SCT040 BKN250
     FM051200 04009KT P6SM VCSH BKN025
     FM051700 03007KT P6SM BKN040 PROB30 0518/0523 4SM TSRA BKN030CB
     FM052300 04011KT P6SM BKN045=

Latest METAR

795
SAUS70 KWBC 051000 RRC
MTRCLT
METAR KCLT 050952Z 04005KT 10SM CLR 22/18 A3012 RMK AO2 SLP188
T02170183


USA.gov is the U.S. government's official web portal to all federal, state and local government web resources and services.